createdAt,value
2022-10-03T00:00:31.411Z,12.36
2022-10-03T00:03:39.879Z,12.56
2022-10-03T00:06:35.876Z,12.60
2022-10-03T00:09:34.105Z,12.57
2022-10-03T00:12:41.550Z,12.42
2022-10-03T00:15:31.068Z,12.34
2022-10-03T00:18:15.384Z,12.17
2022-10-03T00:21:17.593Z,12.39
2022-10-03T00:24:09.899Z,12.38
2022-10-03T00:27:06.577Z,12.49
2022-10-03T00:30:15.426Z,12.52
2022-10-03T00:33:20.213Z,12.67
2022-10-03T00:36:12.021Z,12.15
2022-10-03T00:39:00.986Z,12.70
2022-10-03T00:42:08.159Z,12.59
2022-10-03T00:45:22.015Z,12.50
2022-10-03T00:48:33.262Z,12.58
2022-10-03T00:51:41.535Z,12.71
2022-10-03T00:54:42.645Z,12.79
2022-10-03T00:57:52.980Z,12.82
2022-10-03T01:00:42.001Z,12.75
2022-10-03T01:04:01.514Z,12.70
2022-10-03T01:07:02.202Z,12.70
2022-10-03T01:10:04.247Z,12.56
2022-10-03T01:13:00.441Z,12.49
2022-10-03T01:16:24.470Z,12.39
2022-10-03T01:19:05.949Z,12.56
2022-10-03T01:22:01.426Z,12.38
2022-10-03T01:24:43.943Z,12.42
2022-10-03T01:28:05.160Z,12.46
2022-10-03T01:30:55.105Z,12.40
2022-10-03T01:33:58.716Z,12.44
2022-10-03T01:36:59.756Z,12.57
2022-10-03T01:40:26.011Z,12.51
2022-10-03T01:43:22.833Z,12.66
2022-10-03T01:46:29.517Z,12.66
2022-10-03T01:49:10.112Z,12.34
2022-10-03T01:52:02.575Z,12.42
2022-10-03T01:55:00.449Z,12.54
2022-10-03T01:58:16.129Z,12.55
2022-10-03T02:01:04.056Z,12.55
2022-10-03T02:03:45.101Z,12.68
2022-10-03T02:06:41.083Z,12.49
2022-10-03T02:09:35.399Z,12.62
2022-10-03T02:12:25.582Z,12.68
2022-10-03T02:15:02.642Z,12.63
2022-10-03T02:17:59.058Z,12.59
2022-10-03T02:20:45.213Z,12.57
2022-10-03T02:23:39.543Z,12.56
2022-10-03T02:29:35.499Z,12.39
2022-10-03T02:32:36.420Z,12.29
2022-10-03T02:35:31.059Z,12.05
2022-10-03T02:38:24.544Z,12.09
2022-10-03T02:41:28.416Z,11.92
2022-10-03T02:44:42.460Z,11.75
2022-10-03T02:47:45.243Z,11.32
2022-10-03T02:51:00.351Z,11.37
2022-10-03T02:54:10.033Z,11.16
2022-10-03T02:57:10.006Z,11.42
2022-10-03T03:00:09.081Z,11.70
2022-10-03T03:03:17.915Z,11.74
2022-10-03T03:06:04.955Z,11.39
2022-10-03T03:09:25.733Z,11.35
2022-10-03T03:12:20.125Z,11.20
2022-10-03T03:15:23.358Z,11.00
2022-10-03T03:18:14.546Z,11.21
2022-10-03T03:21:17.245Z,10.96
2022-10-03T03:24:06.956Z,11.05
2022-10-03T03:27:16.654Z,11.25
2022-10-03T03:30:02.535Z,11.58
2022-10-03T03:32:57.445Z,11.74
2022-10-03T03:35:48.154Z,11.69
2022-10-03T03:38:48.650Z,11.76
2022-10-03T03:41:58.631Z,11.70
2022-10-03T03:45:24.057Z,11.68
2022-10-03T03:48:42.280Z,11.70
2022-10-03T03:52:09.160Z,11.72
2022-10-03T03:55:24.696Z,11.78
2022-10-03T03:58:31.611Z,11.93
2022-10-03T04:01:19.552Z,12.08
2022-10-03T04:04:36.849Z,11.99
2022-10-03T04:07:40.329Z,12.01
2022-10-03T04:11:06.647Z,12.23
2022-10-03T04:13:45.782Z,12.22
2022-10-03T04:16:52.537Z,12.24
2022-10-03T04:20:06.327Z,12.23
2022-10-03T04:23:03.595Z,12.12
2022-10-03T04:26:34.101Z,12.15
2022-10-03T04:29:46.040Z,12.27
2022-10-03T04:32:46.733Z,12.15
2022-10-03T04:35:48.724Z,12.34
2022-10-03T04:39:06.607Z,12.42
2022-10-03T04:41:49.178Z,12.30
2022-10-03T04:44:45.284Z,12.36
2022-10-03T04:47:35.588Z,12.33
2022-10-03T04:50:36.098Z,12.23
2022-10-03T04:53:43.634Z,12.30
2022-10-03T04:56:34.498Z,12.45
2022-10-03T04:59:19.323Z,12.38
2022-10-03T05:02:05.416Z,12.38
2022-10-03T05:05:08.697Z,12.30
2022-10-03T05:08:10.086Z,12.30
2022-10-03T05:10:49.444Z,12.26
2022-10-03T05:13:29.246Z,12.23
2022-10-03T05:16:43.706Z,12.03
2022-10-03T05:19:48.050Z,12.05
2022-10-03T05:23:01.187Z,12.08
2022-10-03T05:25:46.156Z,12.11
2022-10-03T05:28:31.491Z,12.06
2022-10-03T05:31:38.371Z,12.20
2022-10-03T05:34:54.127Z,12.33
2022-10-03T05:38:07.743Z,12.15
2022-10-03T05:40:50.714Z,12.22
2022-10-03T05:43:39.608Z,12.17
2022-10-03T05:46:45.737Z,12.07
2022-10-03T05:49:43.137Z,12.10
2022-10-03T05:55:58.569Z,12.02
2022-10-03T05:58:56.225Z,11.96
2022-10-03T06:01:58.806Z,11.82
2022-10-03T06:05:06.856Z,12.09
2022-10-03T06:08:10.092Z,12.20
2022-10-03T06:11:17.776Z,12.01
2022-10-03T06:14:10.004Z,12.21
2022-10-03T06:17:16.648Z,12.36
2022-10-03T06:20:34.182Z,12.23
2022-10-03T06:23:08.140Z,12.25
2022-10-03T06:25:54.143Z,12.31
2022-10-03T06:28:42.786Z,12.28
2022-10-03T06:31:51.038Z,12.44
2022-10-03T06:35:01.322Z,12.47
2022-10-03T06:37:57.119Z,12.56
2022-10-03T06:41:07.341Z,12.64
2022-10-03T06:43:57.167Z,12.66
2022-10-03T06:46:58.666Z,12.65
2022-10-03T06:50:13.691Z,12.67
2022-10-03T06:53:22.322Z,12.60
2022-10-03T06:56:44.184Z,12.48
2022-10-03T06:59:50.866Z,12.57
2022-10-03T07:02:52.688Z,12.57
2022-10-03T07:05:40.988Z,12.77
2022-10-03T07:08:48.420Z,12.73
2022-10-03T07:12:10.807Z,12.89
2022-10-03T07:15:08.421Z,12.99
2022-10-03T07:18:03.185Z,12.97
2022-10-03T07:20:55.057Z,13.23
2022-10-03T07:24:18.685Z,13.18
2022-10-03T07:27:04.561Z,13.26
2022-10-03T07:30:23.147Z,13.28
2022-10-03T07:33:33.386Z,13.38
2022-10-03T07:37:14.735Z,13.34
2022-10-03T07:40:22.832Z,13.41
2022-10-03T07:43:34.118Z,13.39
2022-10-03T07:46:48.747Z,13.39
2022-10-03T07:49:41.269Z,13.33
2022-10-03T07:52:56.219Z,13.55
2022-10-03T07:55:30.928Z,13.64
2022-10-03T07:58:40.058Z,13.70
2022-10-03T08:01:29.407Z,13.83
2022-10-03T08:04:45.609Z,13.65
2022-10-03T08:07:57.839Z,13.86
2022-10-03T08:14:23.108Z,13.90
2022-10-03T08:17:28.562Z,13.89
2022-10-03T08:20:41.441Z,14.17
2022-10-03T08:23:47.259Z,14.22
2022-10-03T08:26:38.478Z,14.28
2022-10-03T08:29:45.063Z,14.21
2022-10-03T08:32:45.170Z,13.80
2022-10-03T08:35:55.575Z,14.17
2022-10-03T08:38:58.564Z,14.26
2022-10-03T08:41:56.607Z,14.30
2022-10-03T08:44:36.409Z,14.40
2022-10-03T08:47:50.186Z,14.42
2022-10-03T08:50:40.048Z,14.49
2022-10-03T08:53:33.414Z,14.53
2022-10-03T08:56:25.610Z,14.36
2022-10-03T08:59:14.758Z,14.48
2022-10-03T09:02:31.375Z,14.54
2022-10-03T09:05:30.628Z,14.56
2022-10-03T09:08:53.646Z,14.79
2022-10-03T09:11:47.324Z,14.88
2022-10-03T09:14:36.552Z,14.98
2022-10-03T09:17:30.742Z,14.87
2022-10-03T09:20:27.004Z,15.15
2022-10-03T09:23:16.589Z,14.83
2022-10-03T09:26:28.491Z,14.88
2022-10-03T09:29:52.495Z,15.05
2022-10-03T09:33:03.691Z,15.30
2022-10-03T09:35:55.523Z,15.68
2022-10-03T09:39:00.049Z,16.34
2022-10-03T09:42:12.668Z,16.38
2022-10-03T09:45:36.759Z,16.61
2022-10-03T09:48:21.652Z,16.48
2022-10-03T09:51:13.348Z,16.14
2022-10-03T09:54:15.336Z,16.82
2022-10-03T09:57:30.129Z,17.67
2022-10-03T10:00:38.887Z,17.36
2022-10-03T10:03:34.885Z,17.28
2022-10-03T10:06:28.138Z,17.20
2022-10-03T10:09:43.514Z,17.50
2022-10-03T10:12:43.380Z,17.47
2022-10-03T10:15:55.025Z,17.84
2022-10-03T10:18:42.883Z,18.16
2022-10-03T10:21:34.068Z,18.46
2022-10-03T10:24:44.273Z,18.53
2022-10-03T10:27:52.542Z,18.86
2022-10-03T10:31:16.975Z,19.12
2022-10-03T10:34:08.353Z,19.22
2022-10-03T10:37:19.599Z,19.25
2022-10-03T10:39:58.844Z,19.55
2022-10-03T10:42:46.661Z,19.24
2022-10-03T10:46:14.381Z,19.56
2022-10-03T10:49:21.959Z,19.86
2022-10-03T10:52:23.929Z,20.54
2022-10-03T10:55:17.771Z,20.84
2022-10-03T10:58:28.633Z,21.33
2022-10-03T11:01:41.701Z,21.19
2022-10-03T11:04:55.832Z,21.20
2022-10-03T11:07:48.706Z,21.67
2022-10-03T11:10:56.662Z,21.18
2022-10-03T11:13:46.068Z,21.56
2022-10-03T11:16:50.342Z,21.71
2022-10-03T11:20:02.058Z,21.14
2022-10-03T11:23:12.962Z,21.08
2022-10-03T11:26:28.821Z,21.81
2022-10-03T11:29:53.040Z,22.44
2022-10-03T11:33:06.093Z,22.83
2022-10-03T11:35:51.427Z,26.97
2022-10-03T11:38:28.802Z,29.12
2022-10-03T11:41:38.460Z,26.69
2022-10-03T11:44:27.650Z,23.55
2022-10-03T11:47:35.669Z,23.05
2022-10-03T11:50:48.391Z,24.12
2022-10-03T11:53:46.262Z,25.27
2022-10-03T11:56:33.515Z,24.49
2022-10-03T11:59:33.626Z,24.78
2022-10-03T12:02:41.993Z,27.78
2022-10-03T12:05:49.474Z,31.14
2022-10-03T12:08:59.205Z,31.32
2022-10-03T12:11:46.530Z,31.85
2022-10-03T12:14:37.720Z,33.17
2022-10-03T12:17:17.094Z,34.50
2022-10-03T12:20:11.215Z,34.33
2022-10-03T12:22:55.517Z,34.63
2022-10-03T12:25:33.488Z,32.41
2022-10-03T12:28:38.382Z,33.63
2022-10-03T12:31:28.511Z,31.74
2022-10-03T12:34:25.448Z,35.50
2022-10-03T12:37:26.993Z,31.79
2022-10-03T12:40:26.549Z,31.66
2022-10-03T12:43:27.656Z,33.13
2022-10-03T12:46:25.108Z,36.14
2022-10-03T12:49:31.720Z,33.19
2022-10-03T12:52:47.091Z,29.29
2022-10-03T12:55:44.386Z,28.73
2022-10-03T12:59:11.059Z,31.51
2022-10-03T13:02:06.639Z,33.42
2022-10-03T13:05:29.579Z,32.82
2022-10-03T13:08:31.235Z,34.59
2022-10-03T13:11:59.525Z,32.42
2022-10-03T13:15:16.113Z,28.89
2022-10-03T13:18:30.925Z,26.42
2022-10-03T13:25:01.272Z,25.23
2022-10-03T13:28:07.114Z,24.53
2022-10-03T13:31:35.707Z,24.49
2022-10-03T13:34:25.978Z,24.26
2022-10-03T13:37:36.902Z,24.15
2022-10-03T13:40:30.021Z,24.06
2022-10-03T13:43:13.497Z,23.95
2022-10-03T13:46:02.367Z,24.09
2022-10-03T13:49:02.549Z,24.06
2022-10-03T13:51:52.296Z,24.29
2022-10-03T13:55:20.791Z,25.18
2022-10-03T13:58:28.707Z,24.59
2022-10-03T14:01:11.693Z,24.42
2022-10-03T14:04:14.505Z,25.44
2022-10-03T14:13:33.586Z,31.84
2022-10-03T14:16:30.265Z,32.06
2022-10-03T14:19:24.903Z,31.48
2022-10-03T14:22:38.085Z,29.41
2022-10-03T14:26:00.157Z,27.34
2022-10-03T14:29:16.743Z,25.43
2022-10-03T14:32:47.771Z,24.97
2022-10-03T14:35:49.758Z,24.19
2022-10-03T14:39:07.813Z,24.65
2022-10-03T14:42:29.009Z,24.63
2022-10-03T14:45:14.389Z,23.95
2022-10-03T14:48:19.236Z,23.39
2022-10-03T14:51:02.082Z,23.65
2022-10-03T14:53:40.309Z,23.91
2022-10-03T14:56:29.905Z,23.77
2022-10-03T14:59:11.418Z,22.79
2022-10-03T15:02:01.276Z,22.32
2022-10-03T15:04:44.176Z,21.99
2022-10-03T15:07:27.208Z,21.85
2022-10-03T15:10:26.210Z,21.74
2022-10-03T15:13:13.868Z,21.52
2022-10-03T15:15:51.530Z,21.49
2022-10-03T15:18:49.408Z,21.19
2022-10-03T15:21:34.387Z,21.04
2022-10-03T15:24:12.950Z,20.92
2022-10-03T15:26:50.157Z,21.00
2022-10-03T15:29:57.234Z,20.58
2022-10-03T15:33:20.736Z,20.89
2022-10-03T15:36:45.493Z,21.17
2022-10-03T15:39:52.703Z,20.68
2022-10-03T15:42:44.096Z,20.29
2022-10-03T15:45:42.625Z,20.12
2022-10-03T15:48:28.514Z,19.77
2022-10-03T15:51:12.661Z,19.60
2022-10-03T15:54:03.625Z,19.25
2022-10-03T15:56:56.127Z,19.04
2022-10-03T15:59:52.880Z,18.58
2022-10-03T16:03:02.391Z,18.35
2022-10-03T16:05:52.692Z,18.09
2022-10-03T16:08:46.260Z,18.11
2022-10-03T16:11:54.876Z,18.08
2022-10-03T16:14:48.554Z,18.11
2022-10-03T16:18:05.523Z,17.94
2022-10-03T16:20:55.099Z,17.62
2022-10-03T16:23:49.357Z,17.64
2022-10-03T16:26:40.335Z,17.53
2022-10-03T16:29:44.166Z,17.32
2022-10-03T16:32:29.186Z,17.24
2022-10-03T16:35:03.779Z,17.31
2022-10-03T16:37:35.739Z,17.08
2022-10-03T16:40:15.011Z,17.00
2022-10-03T16:43:02.630Z,16.92
2022-10-03T16:45:47.459Z,16.77
2022-10-03T16:48:48.686Z,16.67
2022-10-03T16:51:30.993Z,16.51
2022-10-03T16:54:00.505Z,16.60
2022-10-03T16:56:56.330Z,16.49
2022-10-03T16:59:35.547Z,16.37
2022-10-03T17:02:17.593Z,16.27
2022-10-03T17:05:03.228Z,16.16
2022-10-03T17:07:51.780Z,16.22
2022-10-03T17:10:45.651Z,15.99
2022-10-03T17:13:26.702Z,15.69
2022-10-03T17:16:46.291Z,15.31
2022-10-03T17:19:31.533Z,15.11
2022-10-03T17:22:24.446Z,14.69
2022-10-03T17:25:55.016Z,14.74
2022-10-03T17:28:46.381Z,14.34
2022-10-03T17:31:59.953Z,14.20
2022-10-03T17:35:25.744Z,14.21
2022-10-03T17:38:48.987Z,14.26
2022-10-03T17:41:59.623Z,14.48
2022-10-03T17:44:55.127Z,14.21
2022-10-03T17:48:04.714Z,14.00
2022-10-03T17:50:57.105Z,13.93
2022-10-03T17:53:32.801Z,13.83
2022-10-03T17:56:14.623Z,13.70
2022-10-03T17:58:49.537Z,13.65
2022-10-03T18:01:31.366Z,13.45
2022-10-03T18:04:11.598Z,13.53
2022-10-03T18:06:50.670Z,13.51
2022-10-03T18:09:49.133Z,13.39
2022-10-03T18:12:49.183Z,12.83
2022-10-03T18:19:03.322Z,12.75
2022-10-03T18:22:06.019Z,12.82
2022-10-03T18:25:03.766Z,12.76
2022-10-03T18:28:15.358Z,12.86
2022-10-03T18:31:18.296Z,12.65
2022-10-03T18:33:59.435Z,12.80
2022-10-03T18:36:41.262Z,12.59
2022-10-03T18:39:35.926Z,12.69
2022-10-03T18:42:12.118Z,12.51
2022-10-03T18:44:49.232Z,12.27
2022-10-03T18:47:39.904Z,12.33
2022-10-03T18:50:43.548Z,12.02
2022-10-03T18:53:30.275Z,11.66
2022-10-03T18:56:13.281Z,11.97
2022-10-03T18:59:19.053Z,11.93
2022-10-03T19:02:02.477Z,12.15
2022-10-03T19:04:51.321Z,12.16
2022-10-03T19:07:39.407Z,11.61
2022-10-03T19:10:33.702Z,11.89
2022-10-03T19:13:18.013Z,12.12
2022-10-03T19:16:19.123Z,12.18
2022-10-03T19:19:24.179Z,12.38
2022-10-03T19:22:00.008Z,11.88
2022-10-03T19:24:57.912Z,12.05
2022-10-03T19:28:05.861Z,12.02
2022-10-03T19:30:46.881Z,12.07
2022-10-03T19:33:29.447Z,12.10
2022-10-03T19:36:11.070Z,12.39
2022-10-03T19:38:45.808Z,12.08
2022-10-03T19:41:41.973Z,11.79
2022-10-03T19:44:23.880Z,11.75
2022-10-03T19:47:16.208Z,11.58
2022-10-03T19:49:49.257Z,11.55
2022-10-03T19:52:30.482Z,11.72
2022-10-03T19:55:11.986Z,11.84
2022-10-03T19:58:01.982Z,11.71
2022-10-03T20:01:03.390Z,11.54
2022-10-03T20:03:44.958Z,11.71
2022-10-03T20:06:51.186Z,11.37
2022-10-03T20:09:33.380Z,11.16
2022-10-03T20:12:34.777Z,11.32
2022-10-03T20:15:28.687Z,11.74
2022-10-03T20:18:15.044Z,11.83
2022-10-03T20:20:48.597Z,11.59
2022-10-03T20:23:33.356Z,11.52
2022-10-03T20:26:35.515Z,11.36
2022-10-03T20:29:19.434Z,11.69
2022-10-03T20:31:58.817Z,11.58
2022-10-03T20:34:30.347Z,11.41
2022-10-03T20:37:34.967Z,11.25
2022-10-03T20:40:40.084Z,11.28
2022-10-03T20:43:45.092Z,11.08
2022-10-03T20:46:26.915Z,10.94
2022-10-03T20:49:35.261Z,10.76
2022-10-03T20:52:40.179Z,10.51
2022-10-03T20:55:28.588Z,10.86
2022-10-03T20:58:47.948Z,10.72
2022-10-03T21:01:27.962Z,10.78
2022-10-03T21:04:26.607Z,11.10
2022-10-03T21:07:02.591Z,11.17
2022-10-03T21:09:59.297Z,11.03
2022-10-03T21:12:50.415Z,10.88
2022-10-03T21:15:52.716Z,10.80
2022-10-03T21:18:38.246Z,10.79
2022-10-03T21:21:19.308Z,10.69
2022-10-03T21:24:18.561Z,10.37
2022-10-03T21:27:21.370Z,10.59
2022-10-03T21:30:05.286Z,10.41
2022-10-03T21:32:53.460Z,10.77
2022-10-03T21:35:35.086Z,10.91
2022-10-03T21:38:18.884Z,10.80
2022-10-03T21:41:09.309Z,10.67
2022-10-03T21:44:12.947Z,10.65
2022-10-03T21:47:06.196Z,10.73
2022-10-03T21:50:12.653Z,10.72
2022-10-03T21:53:45.679Z,10.77
2022-10-03T21:56:54.580Z,10.67
2022-10-03T21:59:52.737Z,10.74
2022-10-03T22:02:41.366Z,10.69
2022-10-03T22:05:57.181Z,10.64
2022-10-03T22:08:36.617Z,10.74
2022-10-03T22:11:35.516Z,10.79
2022-10-03T22:14:32.817Z,10.64
2022-10-03T22:17:36.499Z,10.57
2022-10-03T22:20:28.760Z,10.48
2022-10-03T22:23:30.111Z,10.52
2022-10-03T22:26:14.131Z,9.80
2022-10-03T22:29:08.457Z,9.66
2022-10-03T22:31:53.237Z,9.65
2022-10-03T22:34:37.624Z,9.90
2022-10-03T22:37:12.151Z,10.01
2022-10-03T22:39:57.337Z,10.13
2022-10-03T22:42:43.306Z,10.36
2022-10-03T22:45:19.078Z,9.88
2022-10-03T22:48:08.983Z,9.91
2022-10-03T22:50:44.573Z,9.96
2022-10-03T22:53:30.013Z,9.95
2022-10-03T22:56:12.120Z,9.88
2022-10-03T22:58:48.982Z,10.02
2022-10-03T23:01:26.219Z,10.03
2022-10-03T23:04:04.595Z,9.78
2022-10-03T23:06:58.248Z,9.61
2022-10-03T23:10:24.780Z,9.64
2022-10-03T23:13:24.544Z,10.00
2022-10-03T23:16:09.847Z,9.92
2022-10-03T23:19:03.138Z,9.87
2022-10-03T23:21:34.293Z,9.97
2022-10-03T23:24:18.770Z,10.00
2022-10-03T23:27:16.664Z,9.99
2022-10-03T23:29:44.805Z,9.79
2022-10-03T23:32:16.211Z,9.80
2022-10-03T23:34:56.249Z,10.00
2022-10-03T23:37:46.456Z,9.98
2022-10-03T23:40:41.560Z,9.81
2022-10-03T23:43:41.758Z,9.88
2022-10-03T23:49:16.656Z,9.59
2022-10-03T23:51:44.829Z,9.47
2022-10-03T23:54:22.161Z,9.55
2022-10-03T23:57:06.578Z,9.60
2022-10-03T23:59:42.636Z,9.48
